Terminal Aerodrome Forecast
Issued by NWS Hastings, NE

Home | Current Version | Previous Version | Text Only | Print | Product List | Glossary On
Versions: 1 2 3 4 5 6 7 8 9 10 11 12 13 14 15 16 17 18 19
224
FTUS45 KGID 240939 AAA
TAFEAR
TAF AMD
KEAR 240939Z 2410/2506 16005KT P6SM BKN010
     FM241700 12010KT P6SM VCTS BKN100CB
     FM242200 14012G20KT P6SM VCTS BKN050CB
     FM250200 12011KT P6SM BKN050
     FM250500 14011KT P6SM VCTS OVC050CB
      AMD LTD TO CLD VIS AND WIND=

USA.gov is the U.S. government's official web portal to all federal, state and local government web resources and services.